sensor_id;sensor_type;location;lat;lon;timestamp;P1;durP1;ratioP1;P2;durP2;ratioP2
9485;SDS011;4781;48.776;9.200;2022-07-29T00:02:24;4.50;;;2.73;;
9485;SDS011;4781;48.776;9.200;2022-07-29T00:04:53;5.35;;;2.72;;
9485;SDS011;4781;48.776;9.200;2022-07-29T00:07:21;5.08;;;2.80;;
9485;SDS011;4781;48.776;9.200;2022-07-29T00:09:50;4.95;;;2.98;;
9485;SDS011;4781;48.776;9.200;2022-07-29T00:12:19;4.97;;;2.50;;
9485;SDS011;4781;48.776;9.200;2022-07-29T00:14:49;4.55;;;3.00;;
9485;SDS011;4781;48.776;9.200;2022-07-29T00:17:21;5.95;;;3.20;;
9485;SDS011;4781;48.776;9.200;2022-07-29T00:19:50;6.00;;;3.22;;
9485;SDS011;4781;48.776;9.200;2022-07-29T00:22:19;6.72;;;2.55;;
9485;SDS011;4781;48.776;9.200;2022-07-29T00:24:48;5.85;;;3.05;;
9485;SDS011;4781;48.776;9.200;2022-07-29T00:27:16;5.05;;;2.72;;
9485;SDS011;4781;48.776;9.200;2022-07-29T00:29:45;5.15;;;2.77;;
9485;SDS011;4781;48.776;9.200;2022-07-29T00:32:14;5.22;;;3.15;;
9485;SDS011;4781;48.776;9.200;2022-07-29T00:34:42;5.10;;;2.70;;
9485;SDS011;4781;48.776;9.200;2022-07-29T00:37:29;9.28;;;3.22;;
9485;SDS011;4781;48.776;9.200;2022-07-29T00:39:57;5.22;;;2.75;;
9485;SDS011;4781;48.776;9.200;2022-07-29T00:42:26;6.00;;;3.00;;
9485;SDS011;4781;48.776;9.200;2022-07-29T00:44:54;5.35;;;3.00;;
9485;SDS011;4781;48.776;9.200;2022-07-29T00:47:22;6.08;;;3.20;;
9485;SDS011;4781;48.776;9.200;2022-07-29T00:49:51;5.50;;;3.17;;
9485;SDS011;4781;48.776;9.200;2022-07-29T00:52:19;5.40;;;2.65;;
9485;SDS011;4781;48.776;9.200;2022-07-29T00:54:48;4.20;;;2.52;;
9485;SDS011;4781;48.776;9.200;2022-07-29T00:57:16;5.67;;;2.80;;
9485;SDS011;4781;48.776;9.200;2022-07-29T00:59:45;4.15;;;2.75;;
9485;SDS011;4781;48.776;9.200;2022-07-29T01:02:13;4.87;;;2.83;;
9485;SDS011;4781;48.776;9.200;2022-07-29T01:04:42;4.72;;;2.77;;
9485;SDS011;4781;48.776;9.200;2022-07-29T01:07:10;4.22;;;2.62;;
9485;SDS011;4781;48.776;9.200;2022-07-29T01:09:39;5.10;;;2.67;;
9485;SDS011;4781;48.776;9.200;2022-07-29T01:12:09;5.15;;;2.47;;
9485;SDS011;4781;48.776;9.200;2022-07-29T01:14:40;4.22;;;2.50;;
9485;SDS011;4781;48.776;9.200;2022-07-29T01:17:10;7.08;;;2.58;;
9485;SDS011;4781;48.776;9.200;2022-07-29T01:19:47;4.92;;;2.60;;
9485;SDS011;4781;48.776;9.200;2022-07-29T01:37:43;3.77;;;2.25;;
9485;SDS011;4781;48.776;9.200;2022-07-29T01:40:45;3.80;;;2.15;;
9485;SDS011;4781;48.776;9.200;2022-07-29T01:43:32;5.05;;;2.33;;
9485;SDS011;4781;48.776;9.200;2022-07-29T01:46:09;4.22;;;2.77;;
9485;SDS011;4781;48.776;9.200;2022-07-29T01:48:41;4.65;;;2.25;;
9485;SDS011;4781;48.776;9.200;2022-07-29T01:51:19;4.28;;;2.35;;
9485;SDS011;4781;48.776;9.200;2022-07-29T01:53:59;4.00;;;2.35;;
9485;SDS011;4781;48.776;9.200;2022-07-29T01:56:29;4.42;;;2.37;;
9485;SDS011;4781;48.776;9.200;2022-07-29T01:59:01;4.70;;;2.30;;
9485;SDS011;4781;48.776;9.200;2022-07-29T02:01:32;4.75;;;2.45;;
9485;SDS011;4781;48.776;9.200;2022-07-29T02:04:02;4.72;;;2.62;;
9485;SDS011;4781;48.776;9.200;2022-07-29T02:06:33;3.83;;;2.12;;
9485;SDS011;4781;48.776;9.200;2022-07-29T02:09:04;5.28;;;2.35;;
9485;SDS011;4781;48.776;9.200;2022-07-29T02:11:34;4.40;;;2.45;;
9485;SDS011;4781;48.776;9.200;2022-07-29T02:14:05;4.03;;;2.10;;
9485;SDS011;4781;48.776;9.200;2022-07-29T02:16:36;3.50;;;2.15;;
9485;SDS011;4781;48.776;9.200;2022-07-29T02:19:08;3.40;;;2.50;;
9485;SDS011;4781;48.776;9.200;2022-07-29T02:21:37;3.60;;;2.12;;
9485;SDS011;4781;48.776;9.200;2022-07-29T02:24:08;3.80;;;2.20;;
9485;SDS011;4781;48.776;9.200;2022-07-29T02:26:39;5.20;;;2.42;;
9485;SDS011;4781;48.776;9.200;2022-07-29T02:29:09;4.40;;;2.22;;
9485;SDS011;4781;48.776;9.200;2022-07-29T02:31:39;3.65;;;2.37;;
9485;SDS011;4781;48.776;9.200;2022-07-29T02:34:12;4.58;;;2.08;;
9485;SDS011;4781;48.776;9.200;2022-07-29T02:36:42;3.62;;;2.30;;
9485;SDS011;4781;48.776;9.200;2022-07-29T02:39:12;3.98;;;2.08;;
9485;SDS011;4781;48.776;9.200;2022-07-29T02:44:15;3.58;;;2.20;;
9485;SDS011;4781;48.776;9.200;2022-07-29T02:47:02;4.65;;;2.80;;
9485;SDS011;4781;48.776;9.200;2022-07-29T02:52:42;4.25;;;2.30;;
9485;SDS011;4781;48.776;9.200;2022-07-29T02:55:33;4.30;;;2.20;;
9485;SDS011;4781;48.776;9.200;2022-07-29T02:58:15;4.20;;;2.35;;
9485;SDS011;4781;48.776;9.200;2022-07-29T03:03:39;5.75;;;2.50;;
9485;SDS011;4781;48.776;9.200;2022-07-29T03:06:12;5.00;;;2.72;;
9485;SDS011;4781;48.776;9.200;2022-07-29T03:08:43;4.37;;;2.75;;
9485;SDS011;4781;48.776;9.200;2022-07-29T03:11:13;5.15;;;2.92;;
9485;SDS011;4781;48.776;9.200;2022-07-29T03:13:42;5.45;;;2.45;;
9485;SDS011;4781;48.776;9.200;2022-07-29T03:16:12;5.08;;;2.77;;
9485;SDS011;4781;48.776;9.200;2022-07-29T03:18:41;5.00;;;2.58;;
9485;SDS011;4781;48.776;9.200;2022-07-29T03:21:10;4.80;;;2.80;;
9485;SDS011;4781;48.776;9.200;2022-07-29T03:23:42;5.15;;;3.10;;
9485;SDS011;4781;48.776;9.200;2022-07-29T03:26:12;4.20;;;2.60;;
9485;SDS011;4781;48.776;9.200;2022-07-29T03:28:40;4.60;;;2.80;;
9485;SDS011;4781;48.776;9.200;2022-07-29T03:31:09;4.35;;;2.85;;
9485;SDS011;4781;48.776;9.200;2022-07-29T03:33:37;5.37;;;2.45;;
9485;SDS011;4781;48.776;9.200;2022-07-29T03:36:05;4.15;;;2.50;;
9485;SDS011;4781;48.776;9.200;2022-07-29T03:38:34;5.15;;;2.85;;
9485;SDS011;4781;48.776;9.200;2022-07-29T03:41:05;4.30;;;2.52;;
9485;SDS011;4781;48.776;9.200;2022-07-29T03:43:37;4.60;;;2.60;;
9485;SDS011;4781;48.776;9.200;2022-07-29T03:46:08;4.53;;;2.67;;
9485;SDS011;4781;48.776;9.200;2022-07-29T03:48:39;7.25;;;4.75;;
9485;SDS011;4781;48.776;9.200;2022-07-29T03:51:11;4.53;;;3.08;;
9485;SDS011;4781;48.776;9.200;2022-07-29T03:53:40;7.42;;;2.72;;
9485;SDS011;4781;48.776;9.200;2022-07-29T03:56:09;4.08;;;2.45;;
9485;SDS011;4781;48.776;9.200;2022-07-29T03:58:39;4.50;;;2.75;;
9485;SDS011;4781;48.776;9.200;2022-07-29T04:01:08;7.15;;;2.55;;
9485;SDS011;4781;48.776;9.200;2022-07-29T04:03:38;4.42;;;2.58;;
9485;SDS011;4781;48.776;9.200;2022-07-29T04:06:07;5.28;;;2.62;;
9485;SDS011;4781;48.776;9.200;2022-07-29T04:08:35;4.08;;;2.22;;
9485;SDS011;4781;48.776;9.200;2022-07-29T04:11:04;3.87;;;2.50;;
9485;SDS011;4781;48.776;9.200;2022-07-29T04:13:33;3.80;;;2.20;;
9485;SDS011;4781;48.776;9.200;2022-07-29T04:16:02;3.52;;;2.33;;
9485;SDS011;4781;48.776;9.200;2022-07-29T04:18:31;4.42;;;2.10;;
9485;SDS011;4781;48.776;9.200;2022-07-29T04:20:59;4.60;;;2.20;;
9485;SDS011;4781;48.776;9.200;2022-07-29T04:23:29;5.25;;;2.55;;
9485;SDS011;4781;48.776;9.200;2022-07-29T04:25:59;5.08;;;2.50;;
9485;SDS011;4781;48.776;9.200;2022-07-29T04:28:28;4.72;;;2.75;;
9485;SDS011;4781;48.776;9.200;2022-07-29T04:30:56;4.30;;;2.55;;
9485;SDS011;4781;48.776;9.200;2022-07-29T04:33:24;4.83;;;2.25;;
9485;SDS011;4781;48.776;9.200;2022-07-29T04:38:41;3.72;;;2.22;;
9485;SDS011;4781;48.776;9.200;2022-07-29T04:41:09;4.35;;;2.40;;
9485;SDS011;4781;48.776;9.200;2022-07-29T04:43:37;3.87;;;2.58;;
9485;SDS011;4781;48.776;9.200;2022-07-29T04:46:06;3.70;;;2.42;;
9485;SDS011;4781;48.776;9.200;2022-07-29T04:48:34;4.12;;;2.37;;
9485;SDS011;4781;48.776;9.200;2022-07-29T04:51:03;3.75;;;2.20;;
9485;SDS011;4781;48.776;9.200;2022-07-29T04:53:31;4.25;;;2.42;;
9485;SDS011;4781;48.776;9.200;2022-07-29T04:55:59;3.95;;;2.33;;
9485;SDS011;4781;48.776;9.200;2022-07-29T04:58:28;3.72;;;2.52;;
9485;SDS011;4781;48.776;9.200;2022-07-29T05:00:57;4.22;;;2.72;;
9485;SDS011;4781;48.776;9.200;2022-07-29T05:03:25;4.30;;;2.37;;
9485;SDS011;4781;48.776;9.200;2022-07-29T05:05:53;4.00;;;2.20;;
9485;SDS011;4781;48.776;9.200;2022-07-29T05:08:22;4.17;;;2.05;;
9485;SDS011;4781;48.776;9.200;2022-07-29T05:10:50;3.40;;;2.17;;
9485;SDS011;4781;48.776;9.200;2022-07-29T05:13:19;3.52;;;2.15;;
9485;SDS011;4781;48.776;9.200;2022-07-29T05:15:47;4.95;;;2.00;;
9485;SDS011;4781;48.776;9.200;2022-07-29T05:18:16;3.85;;;2.02;;
9485;SDS011;4781;48.776;9.200;2022-07-29T05:20:44;3.25;;;1.92;;
9485;SDS011;4781;48.776;9.200;2022-07-29T05:23:12;2.87;;;1.80;;
9485;SDS011;4781;48.776;9.200;2022-07-29T05:25:41;2.85;;;1.65;;
9485;SDS011;4781;48.776;9.200;2022-07-29T05:28:10;3.83;;;2.02;;
9485;SDS011;4781;48.776;9.200;2022-07-29T05:30:38;3.35;;;1.80;;
9485;SDS011;4781;48.776;9.200;2022-07-29T05:33:07;4.80;;;2.10;;
9485;SDS011;4781;48.776;9.200;2022-07-29T05:35:35;3.10;;;1.80;;
9485;SDS011;4781;48.776;9.200;2022-07-29T05:38:03;3.42;;;1.82;;
9485;SDS011;4781;48.776;9.200;2022-07-29T05:40:32;3.12;;;1.72;;
9485;SDS011;4781;48.776;9.200;2022-07-29T05:43:00;3.98;;;1.65;;
9485;SDS011;4781;48.776;9.200;2022-07-29T05:45:29;3.80;;;2.05;;
9485;SDS011;4781;48.776;9.200;2022-07-29T05:47:57;2.47;;;1.40;;
9485;SDS011;4781;48.776;9.200;2022-07-29T05:50:26;2.67;;;1.40;;
9485;SDS011;4781;48.776;9.200;2022-07-29T05:52:54;4.47;;;1.55;;
9485;SDS011;4781;48.776;9.200;2022-07-29T05:55:23;2.85;;;1.62;;
9485;SDS011;4781;48.776;9.200;2022-07-29T05:57:52;3.37;;;1.40;;
9485;SDS011;4781;48.776;9.200;2022-07-29T06:00:20;5.97;;;1.73;;
9485;SDS011;4781;48.776;9.200;2022-07-29T06:02:49;3.87;;;1.45;;
9485;SDS011;4781;48.776;9.200;2022-07-29T06:05:17;2.98;;;1.65;;
9485;SDS011;4781;48.776;9.200;2022-07-29T06:07:45;3.75;;;2.05;;
9485;SDS011;4781;48.776;9.200;2022-07-29T06:10:14;2.52;;;1.47;;
9485;SDS011;4781;48.776;9.200;2022-07-29T06:12:42;3.22;;;2.02;;
9485;SDS011;4781;48.776;9.200;2022-07-29T06:15:11;6.20;;;1.82;;
9485;SDS011;4781;48.776;9.200;2022-07-29T06:17:39;3.90;;;1.72;;
9485;SDS011;4781;48.776;9.200;2022-07-29T06:20:08;3.95;;;1.67;;
9485;SDS011;4781;48.776;9.200;2022-07-29T06:22:37;4.20;;;1.82;;
9485;SDS011;4781;48.776;9.200;2022-07-29T06:25:05;4.22;;;1.70;;
9485;SDS011;4781;48.776;9.200;2022-07-29T06:27:35;3.37;;;1.72;;
9485;SDS011;4781;48.776;9.200;2022-07-29T06:30:04;3.26;;;1.50;;
9485;SDS011;4781;48.776;9.200;2022-07-29T06:32:33;3.60;;;1.80;;
9485;SDS011;4781;48.776;9.200;2022-07-29T06:35:03;3.95;;;1.85;;
9485;SDS011;4781;48.776;9.200;2022-07-29T06:37:31;3.72;;;1.70;;
9485;SDS011;4781;48.776;9.200;2022-07-29T06:40:00;4.62;;;1.90;;
9485;SDS011;4781;48.776;9.200;2022-07-29T06:42:48;3.75;;;2.08;;
9485;SDS011;4781;48.776;9.200;2022-07-29T06:45:16;3.30;;;1.62;;
9485;SDS011;4781;48.776;9.200;2022-07-29T06:47:44;4.65;;;2.08;;
9485;SDS011;4781;48.776;9.200;2022-07-29T06:50:14;3.90;;;2.00;;
9485;SDS011;4781;48.776;9.200;2022-07-29T06:52:42;4.33;;;1.67;;
9485;SDS011;4781;48.776;9.200;2022-07-29T06:55:11;3.15;;;1.72;;
9485;SDS011;4781;48.776;9.200;2022-07-29T06:57:39;3.45;;;1.87;;
9485;SDS011;4781;48.776;9.200;2022-07-29T07:00:08;4.67;;;2.17;;
9485;SDS011;4781;48.776;9.200;2022-07-29T07:02:37;4.15;;;2.40;;
9485;SDS011;4781;48.776;9.200;2022-07-29T07:05:06;5.70;;;2.27;;
9485;SDS011;4781;48.776;9.200;2022-07-29T07:07:35;5.10;;;2.22;;
9485;SDS011;4781;48.776;9.200;2022-07-29T07:10:03;6.30;;;1.70;;
9485;SDS011;4781;48.776;9.200;2022-07-29T07:12:32;4.55;;;1.85;;
9485;SDS011;4781;48.776;9.200;2022-07-29T07:15:01;2.72;;;1.75;;
9485;SDS011;4781;48.776;9.200;2022-07-29T07:17:30;4.78;;;2.17;;
9485;SDS011;4781;48.776;9.200;2022-07-29T07:19:58;2.80;;;1.80;;
9485;SDS011;4781;48.776;9.200;2022-07-29T07:22:26;3.50;;;2.12;;
9485;SDS011;4781;48.776;9.200;2022-07-29T07:24:55;4.45;;;2.20;;
9485;SDS011;4781;48.776;9.200;2022-07-29T07:27:23;8.55;;;2.12;;
9485;SDS011;4781;48.776;9.200;2022-07-29T07:29:53;3.77;;;2.10;;
9485;SDS011;4781;48.776;9.200;2022-07-29T07:32:21;3.92;;;2.37;;
9485;SDS011;4781;48.776;9.200;2022-07-29T07:34:49;4.65;;;2.40;;
9485;SDS011;4781;48.776;9.200;2022-07-29T07:37:18;3.40;;;1.80;;
9485;SDS011;4781;48.776;9.200;2022-07-29T07:39:46;4.85;;;2.02;;
9485;SDS011;4781;48.776;9.200;2022-07-29T07:42:15;4.58;;;2.52;;
9485;SDS011;4781;48.776;9.200;2022-07-29T07:44:43;5.30;;;2.58;;
9485;SDS011;4781;48.776;9.200;2022-07-29T07:47:14;4.55;;;2.30;;
9485;SDS011;4781;48.776;9.200;2022-07-29T07:49:45;3.90;;;2.10;;
9485;SDS011;4781;48.776;9.200;2022-07-29T07:52:15;3.80;;;2.17;;
9485;SDS011;4781;48.776;9.200;2022-07-29T07:54:44;4.28;;;2.10;;
9485;SDS011;4781;48.776;9.200;2022-07-29T07:57:13;4.67;;;2.12;;
9485;SDS011;4781;48.776;9.200;2022-07-29T07:59:43;4.37;;;2.15;;
9485;SDS011;4781;48.776;9.200;2022-07-29T08:02:11;4.00;;;2.17;;
9485;SDS011;4781;48.776;9.200;2022-07-29T08:04:40;3.42;;;1.95;;
9485;SDS011;4781;48.776;9.200;2022-07-29T08:07:08;3.98;;;2.08;;
9485;SDS011;4781;48.776;9.200;2022-07-29T08:09:36;5.95;;;2.10;;
9485;SDS011;4781;48.776;9.200;2022-07-29T08:12:05;3.27;;;2.10;;
9485;SDS011;4781;48.776;9.200;2022-07-29T08:14:34;4.35;;;2.15;;
9485;SDS011;4781;48.776;9.200;2022-07-29T08:17:02;5.37;;;1.80;;
9485;SDS011;4781;48.776;9.200;2022-07-29T08:19:31;4.67;;;2.05;;
9485;SDS011;4781;48.776;9.200;2022-07-29T08:21:59;4.53;;;1.90;;
9485;SDS011;4781;48.776;9.200;2022-07-29T08:24:28;5.42;;;2.10;;
9485;SDS011;4781;48.776;9.200;2022-07-29T08:29:40;4.20;;;2.30;;
9485;SDS011;4781;48.776;9.200;2022-07-29T08:32:09;5.15;;;2.55;;
9485;SDS011;4781;48.776;9.200;2022-07-29T08:34:37;4.65;;;2.20;;
9485;SDS011;4781;48.776;9.200;2022-07-29T08:37:06;3.67;;;2.27;;
9485;SDS011;4781;48.776;9.200;2022-07-29T08:39:34;8.68;;;2.20;;
9485;SDS011;4781;48.776;9.200;2022-07-29T08:42:02;4.45;;;2.30;;
9485;SDS011;4781;48.776;9.200;2022-07-29T08:44:32;3.83;;;2.08;;
9485;SDS011;4781;48.776;9.200;2022-07-29T08:47:01;3.85;;;2.08;;
9485;SDS011;4781;48.776;9.200;2022-07-29T08:49:30;4.58;;;2.35;;
9485;SDS011;4781;48.776;9.200;2022-07-29T08:52:01;3.47;;;2.22;;
9485;SDS011;4781;48.776;9.200;2022-07-29T08:54:30;4.78;;;2.30;;
9485;SDS011;4781;48.776;9.200;2022-07-29T08:56:59;4.97;;;2.22;;
9485;SDS011;4781;48.776;9.200;2022-07-29T08:59:28;7.03;;;2.22;;
9485;SDS011;4781;48.776;9.200;2022-07-29T09:02:00;4.92;;;2.27;;
9485;SDS011;4781;48.776;9.200;2022-07-29T09:04:30;4.15;;;2.35;;
9485;SDS011;4781;48.776;9.200;2022-07-29T09:07:02;4.30;;;2.00;;
9485;SDS011;4781;48.776;9.200;2022-07-29T09:09:33;5.47;;;2.65;;
9485;SDS011;4781;48.776;9.200;2022-07-29T09:12:03;6.10;;;2.60;;
9485;SDS011;4781;48.776;9.200;2022-07-29T09:14:34;4.10;;;2.60;;
9485;SDS011;4781;48.776;9.200;2022-07-29T09:17:02;5.95;;;2.77;;
9485;SDS011;4781;48.776;9.200;2022-07-29T09:19:31;3.83;;;2.08;;
9485;SDS011;4781;48.776;9.200;2022-07-29T09:22:06;4.35;;;2.20;;
9485;SDS011;4781;48.776;9.200;2022-07-29T09:24:46;7.17;;;2.10;;
9485;SDS011;4781;48.776;9.200;2022-07-29T09:27:22;5.78;;;2.50;;
9485;SDS011;4781;48.776;9.200;2022-07-29T09:29:56;5.30;;;2.52;;
9485;SDS011;4781;48.776;9.200;2022-07-29T09:32:33;6.22;;;3.40;;
9485;SDS011;4781;48.776;9.200;2022-07-29T09:35:25;5.20;;;2.30;;
9485;SDS011;4781;48.776;9.200;2022-07-29T09:37:55;6.05;;;2.45;;
9485;SDS011;4781;48.776;9.200;2022-07-29T09:40:24;4.28;;;2.47;;
9485;SDS011;4781;48.776;9.200;2022-07-29T09:42:54;5.10;;;2.65;;
9485;SDS011;4781;48.776;9.200;2022-07-29T09:45:26;4.92;;;2.50;;
9485;SDS011;4781;48.776;9.200;2022-07-29T09:47:57;4.12;;;2.35;;
9485;SDS011;4781;48.776;9.200;2022-07-29T09:50:38;5.40;;;2.27;;
9485;SDS011;4781;48.776;9.200;2022-07-29T09:53:09;5.22;;;2.50;;
9485;SDS011;4781;48.776;9.200;2022-07-29T09:55:50;5.50;;;3.00;;
9485;SDS011;4781;48.776;9.200;2022-07-29T09:58:20;4.55;;;2.83;;
9485;SDS011;4781;48.776;9.200;2022-07-29T10:00:49;4.65;;;2.42;;
9485;SDS011;4781;48.776;9.200;2022-07-29T10:03:21;4.90;;;2.87;;
9485;SDS011;4781;48.776;9.200;2022-07-29T10:06:09;5.90;;;2.60;;
9485;SDS011;4781;48.776;9.200;2022-07-29T10:08:39;4.83;;;2.25;;
9485;SDS011;4781;48.776;9.200;2022-07-29T10:11:11;7.03;;;2.87;;
9485;SDS011;4781;48.776;9.200;2022-07-29T10:13:43;4.92;;;2.20;;
9485;SDS011;4781;48.776;9.200;2022-07-29T10:16:14;4.10;;;2.40;;
9485;SDS011;4781;48.776;9.200;2022-07-29T10:18:43;4.20;;;2.50;;
9485;SDS011;4781;48.776;9.200;2022-07-29T10:21:12;4.28;;;2.45;;
9485;SDS011;4781;48.776;9.200;2022-07-29T10:23:41;4.25;;;2.40;;
9485;SDS011;4781;48.776;9.200;2022-07-29T10:26:11;5.65;;;2.45;;
9485;SDS011;4781;48.776;9.200;2022-07-29T10:28:40;8.75;;;2.60;;
9485;SDS011;4781;48.776;9.200;2022-07-29T10:31:10;4.35;;;2.72;;
9485;SDS011;4781;48.776;9.200;2022-07-29T10:33:51;4.55;;;2.65;;
9485;SDS011;4781;48.776;9.200;2022-07-29T10:42:27;4.70;;;2.83;;
9485;SDS011;4781;48.776;9.200;2022-07-29T10:44:57;6.60;;;3.37;;
9485;SDS011;4781;48.776;9.200;2022-07-29T10:47:26;7.00;;;3.67;;
9485;SDS011;4781;48.776;9.200;2022-07-29T10:55:32;8.88;;;4.08;;
9485;SDS011;4781;48.776;9.200;2022-07-29T10:58:21;8.98;;;4.50;;
9485;SDS011;4781;48.776;9.200;2022-07-29T11:00:51;6.83;;;4.20;;
9485;SDS011;4781;48.776;9.200;2022-07-29T11:06:11;6.92;;;4.30;;
9485;SDS011;4781;48.776;9.200;2022-07-29T11:08:40;7.05;;;4.45;;
9485;SDS011;4781;48.776;9.200;2022-07-29T11:13:52;7.75;;;4.62;;
9485;SDS011;4781;48.776;9.200;2022-07-29T11:16:23;8.33;;;3.72;;
9485;SDS011;4781;48.776;9.200;2022-07-29T11:21:43;9.00;;;4.33;;
9485;SDS011;4781;48.776;9.200;2022-07-29T11:24:15;7.50;;;4.67;;
9485;SDS011;4781;48.776;9.200;2022-07-29T11:29:35;7.53;;;4.80;;
9485;SDS011;4781;48.776;9.200;2022-07-29T11:32:34;9.45;;;5.80;;
9485;SDS011;4781;48.776;9.200;2022-07-29T11:35:20;6.15;;;3.80;;
9485;SDS011;4781;48.776;9.200;2022-07-29T11:43:51;6.22;;;4.37;;
9485;SDS011;4781;48.776;9.200;2022-07-29T11:49:21;6.25;;;4.20;;
9485;SDS011;4781;48.776;9.200;2022-07-29T11:51:57;7.60;;;4.10;;
9485;SDS011;4781;48.776;9.200;2022-07-29T11:54:33;7.55;;;4.55;;
9485;SDS011;4781;48.776;9.200;2022-07-29T11:57:02;9.93;;;5.67;;
9485;SDS011;4781;48.776;9.200;2022-07-29T11:59:40;6.97;;;5.15;;
9485;SDS011;4781;48.776;9.200;2022-07-29T12:02:11;9.60;;;5.37;;
9485;SDS011;4781;48.776;9.200;2022-07-29T12:04:52;8.18;;;5.20;;
9485;SDS011;4781;48.776;9.200;2022-07-29T12:07:28;9.05;;;5.30;;
9485;SDS011;4781;48.776;9.200;2022-07-29T12:10:00;8.48;;;4.72;;
9485;SDS011;4781;48.776;9.200;2022-07-29T12:12:30;7.28;;;5.10;;
9485;SDS011;4781;48.776;9.200;2022-07-29T12:15:09;11.12;;;4.78;;
9485;SDS011;4781;48.776;9.200;2022-07-29T12:17:47;8.03;;;4.53;;
9485;SDS011;4781;48.776;9.200;2022-07-29T12:20:22;6.85;;;4.67;;
9485;SDS011;4781;48.776;9.200;2022-07-29T12:22:56;8.43;;;4.42;;
9485;SDS011;4781;48.776;9.200;2022-07-29T12:25:24;4.83;;;3.25;;
9485;SDS011;4781;48.776;9.200;2022-07-29T12:28:00;4.58;;;3.12;;
9485;SDS011;4781;48.776;9.200;2022-07-29T12:30:41;4.67;;;3.15;;
9485;SDS011;4781;48.776;9.200;2022-07-29T12:33:23;5.53;;;3.22;;
9485;SDS011;4781;48.776;9.200;2022-07-29T12:35:58;7.00;;;3.67;;
9485;SDS011;4781;48.776;9.200;2022-07-29T12:38:28;6.45;;;3.60;;
9485;SDS011;4781;48.776;9.200;2022-07-29T12:40:56;9.48;;;4.15;;
9485;SDS011;4781;48.776;9.200;2022-07-29T12:43:25;6.00;;;3.90;;
9485;SDS011;4781;48.776;9.200;2022-07-29T12:45:55;5.40;;;3.37;;
9485;SDS011;4781;48.776;9.200;2022-07-29T12:51:10;5.22;;;3.55;;
9485;SDS011;4781;48.776;9.200;2022-07-29T12:53:40;6.30;;;4.28;;
9485;SDS011;4781;48.776;9.200;2022-07-29T12:56:14;8.90;;;3.15;;
9485;SDS011;4781;48.776;9.200;2022-07-29T12:58:43;6.05;;;3.60;;
9485;SDS011;4781;48.776;9.200;2022-07-29T13:01:15;5.50;;;3.05;;
9485;SDS011;4781;48.776;9.200;2022-07-29T13:03:55;4.87;;;3.10;;
9485;SDS011;4781;48.776;9.200;2022-07-29T13:09:05;4.90;;;3.17;;
9485;SDS011;4781;48.776;9.200;2022-07-29T13:11:38;5.05;;;2.92;;
9485;SDS011;4781;48.776;9.200;2022-07-29T13:15:11;5.97;;;3.30;;
9485;SDS011;4781;48.776;9.200;2022-07-29T13:17:11;6.55;;;3.55;;
9485;SDS011;4781;48.776;9.200;2022-07-29T13:19:50;4.62;;;3.08;;
9485;SDS011;4781;48.776;9.200;2022-07-29T13:22:22;6.70;;;4.05;;
9485;SDS011;4781;48.776;9.200;2022-07-29T13:24:52;6.85;;;3.40;;
9485;SDS011;4781;48.776;9.200;2022-07-29T13:27:24;4.60;;;3.12;;
9485;SDS011;4781;48.776;9.200;2022-07-29T13:29:55;13.28;;;3.30;;
9485;SDS011;4781;48.776;9.200;2022-07-29T13:32:25;6.83;;;3.80;;
9485;SDS011;4781;48.776;9.200;2022-07-29T13:34:56;9.58;;;3.62;;
9485;SDS011;4781;48.776;9.200;2022-07-29T13:37:26;7.90;;;4.40;;
9485;SDS011;4781;48.776;9.200;2022-07-29T13:39:55;7.85;;;3.90;;
9485;SDS011;4781;48.776;9.200;2022-07-29T13:42:25;7.40;;;3.92;;
9485;SDS011;4781;48.776;9.200;2022-07-29T13:44:54;6.40;;;4.00;;
9485;SDS011;4781;48.776;9.200;2022-07-29T13:47:22;9.30;;;4.60;;
9485;SDS011;4781;48.776;9.200;2022-07-29T13:49:51;7.65;;;4.25;;
9485;SDS011;4781;48.776;9.200;2022-07-29T13:52:19;6.15;;;4.37;;
9485;SDS011;4781;48.776;9.200;2022-07-29T13:54:48;7.92;;;4.92;;
9485;SDS011;4781;48.776;9.200;2022-07-29T13:57:17;7.12;;;5.33;;
9485;SDS011;4781;48.776;9.200;2022-07-29T13:59:45;8.30;;;5.00;;
9485;SDS011;4781;48.776;9.200;2022-07-29T14:02:13;8.38;;;5.80;;
9485;SDS011;4781;48.776;9.200;2022-07-29T14:04:42;8.08;;;5.65;;
9485;SDS011;4781;48.776;9.200;2022-07-29T14:07:10;8.03;;;5.83;;
9485;SDS011;4781;48.776;9.200;2022-07-29T14:09:39;10.23;;;6.25;;
9485;SDS011;4781;48.776;9.200;2022-07-29T14:12:07;8.95;;;5.65;;
9485;SDS011;4781;48.776;9.200;2022-07-29T14:14:36;8.13;;;5.75;;
9485;SDS011;4781;48.776;9.200;2022-07-29T14:17:04;7.00;;;5.03;;
9485;SDS011;4781;48.776;9.200;2022-07-29T14:19:33;10.05;;;5.22;;
9485;SDS011;4781;48.776;9.200;2022-07-29T14:22:03;6.75;;;5.03;;
9485;SDS011;4781;48.776;9.200;2022-07-29T14:24:33;6.58;;;4.83;;
9485;SDS011;4781;48.776;9.200;2022-07-29T14:27:02;7.00;;;5.10;;
9485;SDS011;4781;48.776;9.200;2022-07-29T14:29:31;9.03;;;5.47;;
9485;SDS011;4781;48.776;9.200;2022-07-29T14:32:00;8.83;;;4.92;;
9485;SDS011;4781;48.776;9.200;2022-07-29T14:34:29;7.97;;;5.08;;
9485;SDS011;4781;48.776;9.200;2022-07-29T14:36:57;7.83;;;4.97;;
9485;SDS011;4781;48.776;9.200;2022-07-29T14:39:26;10.00;;;5.53;;
9485;SDS011;4781;48.776;9.200;2022-07-29T14:41:55;6.05;;;4.50;;
9485;SDS011;4781;48.776;9.200;2022-07-29T14:44:23;8.15;;;5.28;;
9485;SDS011;4781;48.776;9.200;2022-07-29T14:46:53;7.40;;;4.78;;
9485;SDS011;4781;48.776;9.200;2022-07-29T14:49:21;8.35;;;4.97;;
9485;SDS011;4781;48.776;9.200;2022-07-29T14:51:50;7.60;;;4.78;;
9485;SDS011;4781;48.776;9.200;2022-07-29T14:54:18;6.90;;;4.20;;
9485;SDS011;4781;48.776;9.200;2022-07-29T14:56:46;7.08;;;4.65;;
9485;SDS011;4781;48.776;9.200;2022-07-29T14:59:16;8.40;;;4.03;;
9485;SDS011;4781;48.776;9.200;2022-07-29T15:01:45;8.98;;;4.67;;
9485;SDS011;4781;48.776;9.200;2022-07-29T15:04:13;5.50;;;4.28;;
9485;SDS011;4781;48.776;9.200;2022-07-29T15:06:41;7.58;;;4.05;;
9485;SDS011;4781;48.776;9.200;2022-07-29T15:09:10;9.80;;;4.15;;
9485;SDS011;4781;48.776;9.200;2022-07-29T15:11:38;7.00;;;4.03;;
9485;SDS011;4781;48.776;9.200;2022-07-29T15:14:07;7.15;;;4.30;;
9485;SDS011;4781;48.776;9.200;2022-07-29T15:16:36;5.92;;;3.70;;
9485;SDS011;4781;48.776;9.200;2022-07-29T15:19:07;6.35;;;3.75;;
9485;SDS011;4781;48.776;9.200;2022-07-29T15:21:36;6.28;;;3.80;;
9485;SDS011;4781;48.776;9.200;2022-07-29T15:24:05;7.12;;;3.83;;
9485;SDS011;4781;48.776;9.200;2022-07-29T15:26:33;5.05;;;3.67;;
9485;SDS011;4781;48.776;9.200;2022-07-29T15:29:02;5.45;;;4.12;;
9485;SDS011;4781;48.776;9.200;2022-07-29T15:31:30;7.05;;;4.30;;
9485;SDS011;4781;48.776;9.200;2022-07-29T15:33:58;5.33;;;3.80;;
9485;SDS011;4781;48.776;9.200;2022-07-29T15:36:27;6.37;;;4.08;;
9485;SDS011;4781;48.776;9.200;2022-07-29T15:38:56;5.78;;;3.85;;
9485;SDS011;4781;48.776;9.200;2022-07-29T15:41:29;7.10;;;4.03;;
9485;SDS011;4781;48.776;9.200;2022-07-29T15:43:57;6.17;;;3.55;;
9485;SDS011;4781;48.776;9.200;2022-07-29T15:46:25;5.85;;;3.95;;
9485;SDS011;4781;48.776;9.200;2022-07-29T15:49:11;7.03;;;4.72;;
9485;SDS011;4781;48.776;9.200;2022-07-29T15:51:40;9.18;;;5.08;;
9485;SDS011;4781;48.776;9.200;2022-07-29T15:54:08;7.45;;;4.87;;
9485;SDS011;4781;48.776;9.200;2022-07-29T15:56:38;6.83;;;4.30;;
9485;SDS011;4781;48.776;9.200;2022-07-29T15:59:06;7.95;;;4.70;;
9485;SDS011;4781;48.776;9.200;2022-07-29T16:01:34;7.05;;;4.53;;
9485;SDS011;4781;48.776;9.200;2022-07-29T16:04:03;5.97;;;4.22;;
9485;SDS011;4781;48.776;9.200;2022-07-29T16:06:31;8.70;;;4.40;;
9485;SDS011;4781;48.776;9.200;2022-07-29T16:09:00;6.90;;;4.22;;
9485;SDS011;4781;48.776;9.200;2022-07-29T16:11:28;5.95;;;3.83;;
9485;SDS011;4781;48.776;9.200;2022-07-29T16:13:57;6.28;;;4.10;;
9485;SDS011;4781;48.776;9.200;2022-07-29T16:16:46;6.72;;;5.17;;
9485;SDS011;4781;48.776;9.200;2022-07-29T16:19:15;5.90;;;4.60;;
9485;SDS011;4781;48.776;9.200;2022-07-29T16:21:43;5.90;;;4.30;;
9485;SDS011;4781;48.776;9.200;2022-07-29T16:24:12;7.53;;;4.40;;
9485;SDS011;4781;48.776;9.200;2022-07-29T16:26:40;7.33;;;4.50;;
9485;SDS011;4781;48.776;9.200;2022-07-29T16:29:08;8.68;;;4.60;;
9485;SDS011;4781;48.776;9.200;2022-07-29T16:31:37;6.70;;;4.03;;
9485;SDS011;4781;48.776;9.200;2022-07-29T16:34:05;6.95;;;4.58;;
9485;SDS011;4781;48.776;9.200;2022-07-29T16:36:33;8.15;;;4.20;;
9485;SDS011;4781;48.776;9.200;2022-07-29T16:39:02;5.80;;;3.80;;
9485;SDS011;4781;48.776;9.200;2022-07-29T16:41:30;6.17;;;4.10;;
9485;SDS011;4781;48.776;9.200;2022-07-29T16:43:59;6.45;;;3.80;;